Time;durP1;ratioP1;P1;durP2;ratioP2;P2;SDS_P1;SDS_P2;PMS_P1;PMS_P2;Temp;Humidity;BMP_temperature;BMP_pressure;BME280_temperature;BME280_humidity;BME280_pressure;Samples;Min_cycle;Max_cycle;Signal;HPM_P1;HPM_P2
2020/12/03 00:01:07;;;;;;;28.42;21.58;;;;;;;2.39;79.02;99805.72;9905450;28;22618;-59
2020/12/03 00:06:17;;;;;;;29.60;22.05;;;;;;;2.39;78.91;99791.75;9893371;28;22000;-61
2020/12/03 00:11:21;;;;;;;30.20;22.65;;;;;;;2.40;79.23;99781.16;9903146;28;20140;-61
2020/12/03 00:16:26;;;;;;;29.05;22.45;;;;;;;2.49;79.03;99769.28;9916977;28;20295;-64
2020/12/03 00:21:42;;;;;;;31.35;23.88;;;;;;;2.44;78.79;99764.28;9908749;28;24293;-62
2020/12/03 00:26:43;;;;;;;34.40;23.92;;;;;;;2.60;78.81;99760.81;9902577;28;20053;-61
2020/12/03 00:31:46;;;;;;;32.40;24.20;;;;;;;2.45;78.24;99752.84;9908450;28;20080;-62
2020/12/03 00:36:47;;;;;;;29.70;22.77;;;;;;;2.55;78.24;99762.84;9915267;28;20153;-61
2020/12/03 00:41:52;;;;;;;26.67;20.48;;;;;;;2.42;78.51;99750.38;9891868;28;20050;-66
2020/12/03 00:46:53;;;;;;;27.23;20.00;;;;;;;2.30;78.46;99733.50;9902251;28;20057;-62
2020/12/03 00:51:55;;;;;;;29.77;22.52;;;;;;;2.29;78.72;99728.34;9909443;28;20123;-62
2020/12/03 00:56:56;;;;;;;30.05;22.65;;;;;;;2.29;79.52;99715.22;9905783;28;20057;-63
2020/12/03 01:01:58;;;;;;;29.70;21.77;;;;;;;2.22;79.58;99721.72;9907025;28;20183;-61
2020/12/03 01:06:59;;;;;;;30.20;22.48;;;;;;;2.22;79.59;99713.84;9910724;28;20078;-61
2020/12/03 01:12:00;;;;;;;29.83;22.73;;;;;;;2.11;79.21;99702.16;9906061;28;20085;-62
2020/12/03 01:17:12;;;;;;;29.90;21.80;;;;;;;2.10;79.27;99692.59;9902425;28;20059;-64
2020/12/03 01:22:14;;;;;;;31.92;22.45;;;;;;;2.17;79.05;99673.88;9915638;28;20052;-62
2020/12/03 01:27:15;;;;;;;30.17;21.92;;;;;;;2.28;79.14;99671.47;9898170;28;20056;-61
2020/12/03 01:32:16;;;;;;;26.38;19.08;;;;;;;2.27;78.36;99664.56;9902489;28;20057;-62
2020/12/03 01:37:18;;;;;;;27.60;20.83;;;;;;;2.29;78.53;99654.81;9895250;28;20052;-62
2020/12/03 01:42:19;;;;;;;27.30;18.70;;;;;;;2.33;78.63;99648.47;9900306;28;20056;-62
2020/12/03 01:47:35;;;;;;;26.45;19.27;;;;;;;2.34;78.60;99634.38;9904750;28;20138;-61
2020/12/03 01:52:36;;;;;;;31.03;21.23;;;;;;;2.40;78.56;99628.78;9894920;28;20093;-62
2020/12/03 01:58:16;;;;;;;29.45;21.77;;;;;;;2.23;78.84;99621.84;9901510;28;20050;-63
2020/12/03 02:03:17;;;;;;;28.88;21.30;;;;;;;2.29;79.26;99604.91;9911652;28;20064;-62
2020/12/03 02:08:19;;;;;;;28.58;19.88;;;;;;;2.31;78.60;99595.13;9909003;28;20518;-62
2020/12/03 02:13:21;;;;;;;29.40;22.13;;;;;;;2.16;79.14;99585.50;9911492;28;20052;-61
2020/12/03 02:18:23;;;;;;;27.67;20.65;;;;;;;2.30;79.31;99588.22;9915145;28;21913;-61
2020/12/03 02:23:26;;;;;;;30.15;21.33;;;;;;;2.11;79.49;99572.66;9903093;28;20057;-62
2020/12/03 02:28:27;;;;;;;28.20;19.85;;;;;;;2.17;79.34;99571.47;9906390;28;20057;-62
2020/12/03 02:33:31;;;;;;;24.85;18.38;;;;;;;2.10;79.46;99557.81;9908609;28;21517;-61
2020/12/03 02:38:33;;;;;;;27.20;19.70;;;;;;;2.17;79.31;99553.91;9903408;28;20137;-61
2020/12/03 02:43:34;;;;;;;28.75;20.83;;;;;;;1.97;80.08;99555.06;9907524;28;20525;-61
2020/12/03 02:48:35;;;;;;;27.88;19.45;;;;;;;2.03;80.05;99548.63;9912799;28;20045;-61
2020/12/03 02:53:37;;;;;;;28.95;21.00;;;;;;;2.10;79.87;99547.31;9914143;28;23824;-62
2020/12/03 02:58:39;;;;;;;24.80;17.90;;;;;;;2.23;79.93;99547.47;9909138;28;20077;-61
2020/12/03 03:03:41;;;;;;;27.33;19.98;;;;;;;2.20;79.34;99537.97;9907663;28;20044;-62
2020/12/03 03:08:42;;;;;;;26.10;18.27;;;;;;;2.11;79.49;99538.50;9902835;28;22014;-62
2020/12/03 03:13:43;;;;;;;24.73;18.45;;;;;;;2.15;79.82;99539.16;9899694;28;21757;-61
2020/12/03 03:18:45;;;;;;;24.92;18.25;;;;;;;2.20;80.33;99526.66;9908778;28;20057;-66
2020/12/03 03:23:46;;;;;;;24.90;18.38;;;;;;;2.15;79.55;99513.78;9908255;28;20049;-61
2020/12/03 03:28:47;;;;;;;24.50;17.45;;;;;;;2.14;79.42;99516.50;9913427;28;20049;-61
2020/12/03 03:33:49;;;;;;;23.88;17.20;;;;;;;2.07;79.16;99502.84;9919005;28;20065;-61
2020/12/03 03:38:50;;;;;;;23.20;17.13;;;;;;;2.18;79.06;99512.75;9922516;28;20621;-61
2020/12/03 03:43:52;;;;;;;24.58;17.58;;;;;;;2.21;79.34;99507.34;9916447;28;20080;-61
2020/12/03 03:48:53;;;;;;;24.25;17.65;;;;;;;2.15;79.46;99507.66;9921988;28;20053;-64
2020/12/03 03:53:55;;;;;;;25.77;18.00;;;;;;;2.20;79.46;99505.63;9928332;28;20059;-61
2020/12/03 03:58:56;;;;;;;23.15;16.33;;;;;;;2.16;79.49;99498.88;9918054;28;20052;-63
2020/12/03 04:03:58;;;;;;;23.50;16.23;;;;;;;2.06;80.08;99504.66;9926663;28;20060;-62
2020/12/03 04:08:59;;;;;;;21.25;16.08;;;;;;;2.10;80.06;99495.66;9923193;28;20049;-62
2020/12/03 04:14:00;;;;;;;24.08;17.85;;;;;;;2.09;79.57;99501.84;9913252;28;20054;-65
2020/12/03 04:19:02;;;;;;;26.15;18.10;;;;;;;2.09;79.69;99503.63;9916001;28;20202;-61
2020/12/03 04:24:03;;;;;;;24.25;17.00;;;;;;;2.28;79.61;99493.75;9906971;28;20916;-61
2020/12/03 04:29:05;;;;;;;24.90;17.73;;;;;;;2.33;78.66;99493.50;9922993;28;20354;-61
2020/12/03 04:34:06;;;;;;;24.65;17.73;;;;;;;2.36;78.89;99495.94;9925930;28;20053;-62
2020/12/03 04:39:08;;;;;;;25.67;17.92;;;;;;;2.12;79.25;99477.19;9913436;28;20098;-61
2020/12/03 04:44:20;;;;;;;25.75;18.63;;;;;;;2.26;79.72;99484.28;9920572;28;20052;-60
2020/12/03 04:49:33;;;;;;;27.63;18.70;;;;;;;2.30;78.84;99480.53;9909350;28;20049;-64
2020/12/03 04:54:45;;;;;;;25.10;17.65;;;;;;;2.16;79.37;99469.97;9920896;28;20064;-63
2020/12/03 04:59:53;;;;;;;24.27;18.00;;;;;;;2.27;79.35;99462.34;9909011;28;20519;-60
2020/12/03 05:05:03;;;;;;;27.70;19.55;;;;;;;2.26;79.08;99460.63;9905996;28;20057;-61
2020/12/03 05:10:34;;;;;;;24.30;18.05;;;;;;;2.14;79.63;99458.72;9924578;28;23878;-61
2020/12/03 05:15:35;;;;;;;28.08;18.23;;;;;;;2.17;79.65;99453.31;9918885;28;20084;-63
2020/12/03 05:20:57;;;;;;;29.15;20.08;;;;;;;2.18;79.55;99460.22;9915237;28;20053;-62
2020/12/03 05:26:00;;;;;;;24.83;17.45;;;;;;;2.33;79.25;99448.84;9916694;28;24418;-62
2020/12/03 05:31:18;;;;;;;29.17;18.50;;;;;;;2.39;78.57;99443.22;9911099;28;20044;-63
2020/12/03 05:36:31;;;;;;;24.48;18.40;;;;;;;2.37;78.61;99431.97;9920992;28;20498;-61
2020/12/03 05:41:46;;;;;;;30.42;19.08;;;;;;;2.32;78.28;99423.50;9912457;28;20766;-63
2020/12/03 05:46:49;;;;;;;25.67;18.52;;;;;;;2.40;78.62;99418.66;9918937;28;20403;-63
2020/12/03 05:52:07;;;;;;;27.30;19.13;;;;;;;2.33;78.40;99417.31;9906179;28;22619;-60
2020/12/03 05:57:21;;;;;;;23.52;17.05;;;;;;;2.29;78.59;99415.81;9906649;28;20049;-60
2020/12/03 06:02:40;;;;;;;24.45;17.35;;;;;;;2.35;78.75;99414.59;9919826;28;20079;-61
2020/12/03 06:08:06;;;;;;;22.42;16.35;;;;;;;2.43;78.51;99402.69;9917092;28;20511;-63
2020/12/03 06:13:54;;;;;;;24.70;17.25;;;;;;;2.35;78.73;99397.03;9890404;28;20049;-63
2020/12/03 06:19:09;;;;;;;23.27;16.67;;;;;;;2.40;78.35;99392.38;9893998;28;20045;-63
2020/12/03 06:24:52;;;;;;;21.67;15.73;;;;;;;2.50;78.54;99383.94;9911948;28;20531;-60
2020/12/03 06:30:12;;;;;;;20.20;15.90;;;;;;;2.51;78.24;99385.59;9926205;28;20095;-61
2020/12/03 06:35:29;;;;;;;21.73;16.30;;;;;;;2.36;78.69;99380.38;9906072;28;20061;-60
2020/12/03 06:40:36;;;;;;;25.30;15.65;;;;;;;2.44;79.32;99364.13;9903313;28;21008;-60
2020/12/03 06:45:44;;;;;;;21.45;16.02;;;;;;;2.59;79.13;99362.34;9908731;28;20087;-61
2020/12/03 06:50:45;;;;;;;22.00;16.35;;;;;;;2.55;78.89;99363.47;9908434;28;20107;-65
2020/12/03 06:56:21;;;;;;;21.85;16.85;;;;;;;2.59;78.78;99360.56;9902070;28;20049;-61
2020/12/03 07:01:41;;;;;;;;;;;;;;;2.61;79.17;99356.06;9921368;28;20053;-60
2020/12/03 07:07:04;;;;;;;19.95;14.40;;;;;;;2.64;79.24;99341.88;9917513;28;19928;-62
2020/12/03 07:12:41;;;;;;;22.67;14.73;;;;;;;2.63;79.30;99332.31;9895981;28;20413;-63
2020/12/03 07:18:19;;;;;;;21.80;15.00;;;;;;;2.66;79.01;99329.50;9911349;28;20057;-61
2020/12/03 07:23:39;;;;;;;22.63;16.83;;;;;;;2.63;79.44;99325.28;9922675;28;20167;-61
2020/12/03 07:28:46;;;;;;;19.67;15.07;;;;;;;2.51;79.49;99323.41;9917987;28;20061;-61
2020/12/03 07:33:58;;;;;;;21.45;15.88;;;;;;;2.47;79.63;99325.38;9901119;28;23237;-61
2020/12/03 07:39:11;;;;;;;21.25;14.88;;;;;;;2.52;79.83;99322.47;9915492;28;20491;-61
2020/12/03 07:44:26;;;;;;;21.67;16.08;;;;;;;2.56;79.82;99315.25;9925051;28;20059;-60
2020/12/03 07:49:42;;;;;;;20.30;15.95;;;;;;;2.63;79.61;99306.03;9910248;28;20622;-61
2020/12/03 07:54:43;;;;;;;20.95;13.85;;;;;;;2.70;79.33;99294.19;9908159;28;20060;-60
2020/12/03 07:59:46;;;;;;;17.08;14.10;;;;;;;2.71;79.41;99280.13;9904428;28;20049;-61
2020/12/03 08:04:47;;;;;;;19.38;14.52;;;;;;;2.76;79.23;99264.06;9908345;28;20139;-61
2020/12/03 08:09:48;;;;;;;20.67;15.95;;;;;;;2.72;79.29;99244.16;9914433;28;22178;-60
2020/12/03 08:15:31;;;;;;;20.98;15.70;;;;;;;2.79;79.30;99230.53;9911784;28;21769;-60
2020/12/03 08:20:42;;;;;;;18.65;14.88;;;;;;;2.69;79.22;99234.72;9937353;28;20119;-62
2020/12/03 08:25:44;;;;;;;23.33;16.52;;;;;;;2.73;79.10;99235.34;9922360;28;20053;-61
2020/12/03 08:30:52;;;;;;;21.40;17.20;;;;;;;2.69;79.80;99232.06;9908618;28;20049;-60
2020/12/03 08:35:56;;;;;;;22.00;16.52;;;;;;;2.54;79.52;99212.88;9920227;28;20068;-61
2020/12/03 08:41:02;;;;;;;23.03;16.63;;;;;;;2.58;79.86;99226.66;9919963;28;20422;-61
2020/12/03 08:46:08;;;;;;;21.73;16.50;;;;;;;2.64;80.65;99210.50;9929121;28;20048;-61
2020/12/03 08:51:12;;;;;;;25.73;16.73;;;;;;;2.85;79.60;99213.50;9907129;28;20060;-60
2020/12/03 08:56:16;;;;;;;24.02;16.45;;;;;;;2.95;79.70;99205.88;9933175;28;20059;-60
2020/12/03 09:01:21;;;;;;;22.73;17.15;;;;;;;3.11;78.97;99203.94;9920683;28;20057;-60
2020/12/03 09:06:30;;;;;;;21.97;15.90;;;;;;;3.19;78.45;99208.69;9932906;28;20053;-60
2020/12/03 09:11:33;;;;;;;23.17;17.33;;;;;;;3.17;78.64;99200.88;9913369;28;20207;-61
2020/12/03 09:16:36;;;;;;;23.13;16.85;;;;;;;3.24;78.87;99197.84;9913809;28;20212;-60
2020/12/03 09:21:38;;;;;;;23.00;17.05;;;;;;;3.19;78.46;99167.44;9924820;28;22572;-60
2020/12/03 09:26:40;;;;;;;21.75;16.20;;;;;;;3.14;78.47;99187.13;9915571;28;20483;-61
2020/12/03 09:31:42;;;;;;;21.38;17.48;;;;;;;3.07;78.38;99175.31;9914757;28;20060;-60
2020/12/03 09:36:43;;;;;;;22.75;16.27;;;;;;;3.16;78.92;99167.63;9906011;28;20059;-61
2020/12/03 09:41:45;;;;;;;22.48;18.92;;;;;;;3.16;78.41;99165.00;9907066;28;20140;-60
2020/12/03 09:46:50;;;;;;;24.38;18.58;;;;;;;3.22;78.11;99157.66;9915036;28;20544;-62
2020/12/03 09:51:52;;;;;;;25.85;18.23;;;;;;;3.39;77.53;99154.72;9914595;28;20128;-62
2020/12/03 09:56:53;;;;;;;25.85;21.45;;;;;;;3.45;76.52;99143.78;9916382;28;20725;-61
2020/12/03 10:02:07;;;;;;;25.50;18.80;;;;;;;3.52;75.43;99139.78;9918207;28;20057;-62
2020/12/03 10:07:46;;;;;;;23.25;18.83;;;;;;;3.34;76.23;99128.72;9925646;28;20053;-59
2020/12/03 10:13:05;;;;;;;21.30;17.27;;;;;;;3.31;75.83;99114.94;9915946;28;20095;-61
2020/12/03 10:18:18;;;;;;;23.25;19.63;;;;;;;3.27;75.85;99095.91;9916934;28;20056;-62
2020/12/03 10:23:38;;;;;;;20.23;17.15;;;;;;;3.36;76.29;99097.06;9912121;28;20063;-63
2020/12/03 10:28:45;;;;;;;19.77;16.30;;;;;;;3.44;75.16;99088.63;9920840;28;20053;-62
2020/12/03 10:33:50;;;;;;;19.05;16.02;;;;;;;3.38;75.88;99079.38;9912261;28;20495;-61
2020/12/03 10:38:56;;;;;;;20.13;15.60;;;;;;;3.46;75.25;99081.47;9925734;28;20049;-61
2020/12/03 10:44:02;;;;;;;21.23;15.00;;;;;;;3.43;75.00;99087.78;9926497;28;20048;-60
2020/12/03 10:49:05;;;;;;;20.33;16.08;;;;;;;3.42;75.26;99053.69;9924088;28;20060;-61
2020/12/03 10:54:06;;;;;;;17.85;15.93;;;;;;;3.45;75.20;99049.09;9913020;28;20057;-61
2020/12/03 10:59:53;;;;;;;17.27;14.85;;;;;;;3.58;75.04;99035.88;9913062;28;20049;-60
2020/12/03 11:04:31;;;;;;;21.23;16.25;;;;;;;3.66;74.35;99022.19;9915255;28;21419;-59
2020/12/03 11:09:33;;;;;;;18.70;15.82;;;;;;;3.62;74.40;99023.34;9908799;28;20057;-59
2020/12/03 11:14:35;;;;;;;20.58;16.52;;;;;;;3.75;74.28;99026.78;9919892;28;20126;-61
2020/12/03 11:19:42;;;;;;;20.15;15.82;;;;;;;3.73;73.69;99010.25;9914873;28;20128;-63
2020/12/03 11:24:48;;;;;;;20.35;15.93;;;;;;;3.70;74.12;98994.69;9906891;28;20057;-60
2020/12/03 11:29:49;;;;;;;21.65;16.88;;;;;;;3.67;73.91;98977.31;9905209;28;20430;-63
2020/12/03 11:34:52;;;;;;;21.27;17.42;;;;;;;3.72;73.81;98966.47;9912336;28;20467;-61
2020/12/03 11:40:07;;;;;;;21.65;16.90;;;;;;;3.59;73.97;98956.00;9915712;28;24138;-60
2020/12/03 11:50:18;;;;;;;23.95;18.15;;;;;;;3.70;72.92;98934.16;9932100;28;20059;-61
2020/12/03 11:55:24;;;;;;;22.38;17.63;;;;;;;3.70;73.04;98937.63;9919442;28;20059;-60
2020/12/03 12:00:25;;;;;;;20.17;17.00;;;;;;;3.80;73.07;98932.53;9943424;28;20053;-62
2020/12/03 12:11:03;;;;;;;21.00;16.25;;;;;;;3.99;71.37;98932.00;9926193;28;20063;-62
2020/12/03 12:16:13;;;;;;;20.75;17.10;;;;;;;4.12;71.22;98916.13;9913969;28;20926;-62
2020/12/03 12:21:14;;;;;;;22.25;15.88;;;;;;;4.12;69.96;98902.13;9928320;28;20060;-62
2020/12/03 12:26:16;;;;;;;20.73;17.05;;;;;;;4.14;70.17;98893.13;9923608;28;20053;-61
2020/12/03 12:31:18;;;;;;;20.67;17.13;;;;;;;4.18;70.71;98894.59;9926527;28;20854;-61
2020/12/03 12:36:19;;;;;;;19.20;15.55;;;;;;;4.17;68.74;98869.19;9913633;28;20115;-62
2020/12/03 12:41:20;;;;;;;18.50;14.70;;;;;;;4.16;68.79;98864.91;9910675;28;20423;-61
2020/12/03 12:46:23;;;;;;;18.20;15.30;;;;;;;4.30;69.60;98850.69;9918136;28;20481;-61
2020/12/03 12:51:25;;;;;;;17.02;14.80;;;;;;;4.31;68.73;98840.97;9901202;28;20201;-62
2020/12/03 12:56:26;;;;;;;21.20;17.70;;;;;;;4.29;67.79;98827.09;9922731;28;20058;-62
2020/12/03 13:01:27;;;;;;;16.80;13.93;;;;;;;4.23;67.93;98826.63;9929564;28;20231;-61
2020/12/03 13:06:29;;;;;;;15.40;13.30;;;;;;;4.32;67.63;98816.31;9912244;28;20056;-61
2020/12/03 13:11:30;;;;;;;17.50;13.75;;;;;;;4.33;68.00;98796.91;9913224;28;20086;-60
2020/12/03 13:16:33;;;;;;;15.88;13.95;;;;;;;4.41;67.94;98778.69;9918038;28;20057;-61
2020/12/03 13:21:38;;;;;;;15.07;12.60;;;;;;;4.64;68.02;98768.13;9927065;28;20057;-62
2020/12/03 13:26:39;;;;;;;14.88;11.95;;;;;;;5.62;65.22;98754.03;9912233;28;22261;-61
2020/12/03 13:31:48;;;;;;;12.18;10.70;;;;;;;11.39;48.35;98730.06;9913547;28;20052;-62
2020/12/03 13:36:49;;;;;;;12.27;10.35;;;;;;;10.88;47.56;98715.00;9915140;28;20099;-65
2020/12/03 13:41:50;;;;;;;11.32;10.05;;;;;;;8.47;53.31;98719.78;9907427;28;20049;-63
2020/12/03 13:46:52;;;;;;;13.55;10.85;;;;;;;6.90;57.44;98720.06;9910963;28;20061;-63
2020/12/03 13:51:53;;;;;;;13.88;11.07;;;;;;;6.23;60.87;98700.44;9908837;28;20052;-62
2020/12/03 13:56:54;;;;;;;13.70;11.18;;;;;;;5.77;62.20;98701.72;9910598;28;20053;-62
2020/12/03 14:01:56;;;;;;;11.77;9.70;;;;;;;5.62;63.27;98701.22;9910458;28;21119;-61
2020/12/03 14:06:57;;;;;;;12.27;10.23;;;;;;;5.49;64.25;98698.78;9925525;28;20048;-63
2020/12/03 14:11:59;;;;;;;13.77;10.50;;;;;;;5.37;63.92;98691.88;9914022;28;20952;-62
2020/12/03 14:17:00;;;;;;;11.63;9.80;;;;;;;5.25;64.43;98678.75;9926997;28;20160;-61
2020/12/03 14:22:01;;;;;;;11.60;10.25;;;;;;;5.08;64.84;98674.88;9905561;28;23857;-62
2020/12/03 14:27:04;;;;;;;12.00;8.32;;;;;;;5.06;65.44;98676.81;9905471;28;20975;-61
2020/12/03 14:32:05;;;;;;;10.52;8.48;;;;;;;4.71;65.96;98648.06;9912523;28;20053;-61
2020/12/03 14:37:07;;;;;;;11.02;9.13;;;;;;;4.77;65.61;98658.97;9907908;28;20063;-60
2020/12/03 14:42:08;;;;;;;11.18;9.18;;;;;;;4.80;65.49;98657.84;9911646;28;20053;-61
2020/12/03 14:47:10;;;;;;;11.77;9.90;;;;;;;4.65;66.00;98648.56;9906064;28;21441;-62
2020/12/03 14:52:14;;;;;;;12.25;8.68;;;;;;;4.63;66.24;98650.50;9912091;28;20053;-61
2020/12/03 14:57:15;;;;;;;16.75;13.88;;;;;;;4.62;66.51;98643.56;9918830;28;20052;-60
2020/12/03 15:02:19;;;;;;;11.82;9.57;;;;;;;4.54;66.26;98637.09;9900435;28;20045;-62
2020/12/03 15:07:20;;;;;;;16.13;14.45;;;;;;;4.48;66.47;98627.06;9921533;28;20056;-61
2020/12/03 15:12:21;;;;;;;11.90;9.93;;;;;;;4.36;67.10;98630.72;9909909;28;24434;-60
2020/12/03 15:17:23;;;;;;;11.27;9.52;;;;;;;4.32;66.93;98613.47;9916172;28;20399;-61
2020/12/03 15:22:25;;;;;;;11.43;9.00;;;;;;;4.34;66.96;98608.91;9916052;28;20510;-60
2020/12/03 15:27:27;;;;;;;10.73;8.85;;;;;;;4.26;67.32;98601.63;9906637;28;20057;-60
2020/12/03 15:32:28;;;;;;;12.15;9.48;;;;;;;4.21;67.40;98604.63;9897722;28;20075;-63
2020/12/03 15:37:30;;;;;;;10.40;8.32;;;;;;;4.08;67.32;98580.22;9894859;28;20057;-61
2020/12/03 15:42:33;;;;;;;11.05;7.63;;;;;;;4.04;67.33;98581.47;9906194;28;20443;-61
2020/12/03 15:47:35;;;;;;;10.98;9.75;;;;;;;4.06;66.77;98576.91;9899691;28;20049;-61
2020/12/03 15:52:36;;;;;;;10.45;8.43;;;;;;;4.08;66.53;98569.69;9903881;28;21832;-61
2020/12/03 15:57:38;;;;;;;10.50;8.73;;;;;;;4.13;66.79;98564.06;9905150;28;22233;-63
2020/12/03 16:02:42;;;;;;;11.23;9.15;;;;;;;4.21;66.23;98559.84;9905245;28;20052;-63
2020/12/03 16:07:43;;;;;;;12.75;9.00;;;;;;;4.22;66.08;98551.00;9915512;28;20064;-62
2020/12/03 16:12:44;;;;;;;10.48;8.90;;;;;;;4.29;66.30;98545.22;9907789;28;20052;-62
2020/12/03 16:17:46;;;;;;;12.77;9.43;;;;;;;4.33;66.48;98542.22;9908727;28;23095;-60
2020/12/03 16:22:47;;;;;;;10.02;8.57;;;;;;;4.37;66.52;98537.53;9913742;28;20048;-61
2020/12/03 16:27:48;;;;;;;11.02;9.38;;;;;;;4.29;65.95;98529.41;9909640;28;20102;-62
2020/12/03 16:32:50;;;;;;;10.85;9.25;;;;;;;4.20;66.04;98523.09;9906079;28;20054;-60
2020/12/03 16:37:52;;;;;;;11.13;9.43;;;;;;;4.11;66.54;98513.31;9904650;28;20054;-61
2020/12/03 16:42:53;;;;;;;15.45;13.50;;;;;;;4.12;66.24;98513.19;9884731;28;20056;-61
2020/12/03 16:47:54;;;;;;;12.10;10.13;;;;;;;4.06;66.75;98497.91;9908545;28;20068;-61
2020/12/03 16:52:55;;;;;;;16.45;13.63;;;;;;;3.90;66.42;98440.38;9908864;28;20055;-60
2020/12/03 16:57:57;;;;;;;13.48;10.60;;;;;;;4.14;66.14;98461.22;9917362;28;20487;-62
2020/12/03 17:02:59;;;;;;;13.80;12.25;;;;;;;4.11;66.42;98450.94;9916669;28;20075;-61
2020/12/03 17:08:00;;;;;;;13.65;9.82;;;;;;;4.10;66.99;98449.31;9906697;28;20057;-61
2020/12/03 17:13:01;;;;;;;13.95;11.40;;;;;;;4.15;66.69;98426.03;9911641;28;20056;-62
2020/12/03 17:18:04;;;;;;;11.98;9.85;;;;;;;4.14;66.06;98429.63;9904432;28;20053;-61
2020/12/03 17:23:05;;;;;;;13.13;11.68;;;;;;;4.09;66.30;98421.28;9903100;28;20048;-60
2020/12/03 17:28:06;;;;;;;15.10;10.38;;;;;;;4.05;66.13;98414.59;9894942;28;20053;-61
2020/12/03 17:33:10;;;;;;;11.90;9.68;;;;;;;4.13;66.70;98400.78;9874528;28;20057;-63
2020/12/03 17:38:11;;;;;;;24.65;22.15;;;;;;;4.10;66.00;98396.63;9903199;28;20083;-65
2020/12/03 17:43:13;;;;;;;13.07;11.55;;;;;;;4.15;65.88;98386.53;9909909;28;23710;-64
2020/12/03 17:48:15;;;;;;;13.75;11.75;;;;;;;4.22;65.94;98374.53;9900073;28;20142;-60
2020/12/03 17:53:17;;;;;;;13.48;10.90;;;;;;;4.09;65.86;98365.16;9899669;28;21289;-63
2020/12/03 17:58:19;;;;;;;10.98;9.30;;;;;;;4.12;65.45;98349.94;9893135;28;20063;-59
2020/12/03 18:03:20;;;;;;;13.70;9.63;;;;;;;4.15;68.20;98347.03;9898471;28;20055;-57
2020/12/03 18:08:21;;;;;;;13.95;10.60;;;;;;;4.43;68.93;98334.16;9902921;28;20517;-58
2020/12/03 18:13:23;;;;;;;13.48;10.65;;;;;;;4.52;66.58;98322.84;9913715;28;20053;-57
2020/12/03 18:18:24;;;;;;;15.13;12.02;;;;;;;4.63;66.47;98319.25;9904726;28;20060;-57
2020/12/03 18:23:26;;;;;;;12.98;11.50;;;;;;;4.59;65.88;98299.41;9913584;28;20083;-62
2020/12/03 18:28:28;;;;;;;13.23;11.63;;;;;;;4.48;64.97;98283.72;9886908;28;20057;-64
2020/12/03 18:33:32;;;;;;;14.52;11.15;;;;;;;4.30;65.64;98275.59;9898168;28;22267;-62
2020/12/03 18:38:33;;;;;;;13.38;11.43;;;;;;;4.28;65.47;98277.50;9900598;28;20064;-64
2020/12/03 18:43:35;;;;;;;11.35;9.90;;;;;;;4.20;65.64;98249.19;9905640;28;20122;-60
2020/12/03 18:48:36;;;;;;;13.10;10.55;;;;;;;4.17;65.57;98252.94;9901526;28;20079;-64
2020/12/03 18:53:38;;;;;;;11.55;10.20;;;;;;;4.18;65.31;98251.16;9906353;28;20064;-65
2020/12/03 18:58:39;;;;;;;13.18;10.05;;;;;;;4.23;66.28;98244.53;9895572;28;20057;-60
2020/12/03 19:03:43;;;;;;;10.50;9.20;;;;;;;4.42;66.09;98243.75;9900984;28;20053;-60
2020/12/03 19:08:45;;;;;;;12.20;9.50;;;;;;;4.54;65.14;98220.75;9902681;28;20431;-63
2020/12/03 19:13:51;;;;;;;12.57;9.55;;;;;;;4.38;64.26;98209.91;9908404;28;20057;-61
2020/12/03 19:18:52;;;;;;;11.60;10.18;;;;;;;4.14;64.24;98199.69;9896920;28;20057;-61
2020/12/03 19:23:58;;;;;;;11.80;10.50;;;;;;;4.21;64.84;98188.50;9895505;28;20053;-64
2020/12/03 19:28:59;;;;;;;10.77;9.68;;;;;;;4.22;64.81;98195.44;9887500;28;20052;-61
2020/12/03 19:34:01;;;;;;;14.13;10.65;;;;;;;4.17;64.71;98183.63;9890059;28;20052;-61
2020/12/03 19:39:03;;;;;;;11.68;9.30;;;;;;;4.15;64.54;98170.59;9884880;28;20057;-63
2020/12/03 19:44:05;;;;;;;11.43;9.45;;;;;;;4.10;64.66;98170.19;9879405;28;20594;-63
2020/12/03 19:49:06;;;;;;;12.25;9.90;;;;;;;4.12;64.79;98172.69;9882975;28;20125;-64
2020/12/03 19:54:07;;;;;;;13.00;11.00;;;;;;;4.13;64.21;98167.28;9855962;28;20057;-65
2020/12/03 19:59:09;;;;;;;10.93;9.80;;;;;;;4.02;64.44;98157.69;9890138;28;20056;-63
2020/12/03 20:04:10;;;;;;;12.02;9.57;;;;;;;4.01;64.46;98142.03;9889148;28;20057;-61
2020/12/03 20:09:12;;;;;;;11.70;9.73;;;;;;;3.98;64.69;98137.00;9892446;28;20100;-65
2020/12/03 20:14:13;;;;;;;11.68;9.90;;;;;;;3.89;64.39;98126.31;9897290;28;20060;-64
2020/12/03 20:19:16;;;;;;;10.85;9.75;;;;;;;3.85;64.48;98124.91;9900459;28;20462;-61
2020/12/03 20:24:19;;;;;;;11.90;10.40;;;;;;;3.75;64.84;98110.06;9895511;28;20049;-60
2020/12/03 20:29:21;;;;;;;11.73;10.40;;;;;;;3.76;65.05;98096.75;9891750;28;20053;-62
2020/12/03 20:34:33;;;;;;;12.40;10.13;;;;;;;3.68;64.82;98086.09;9878443;28;20383;-62
2020/12/03 20:39:35;;;;;;;11.93;10.07;;;;;;;3.63;64.88;98083.00;9871712;28;21830;-60
2020/12/03 20:44:37;;;;;;;12.65;10.38;;;;;;;3.54;65.33;98069.69;9867733;28;20126;-65
2020/12/03 20:49:39;;;;;;;11.93;9.95;;;;;;;3.56;64.86;98066.06;9869249;28;20048;-63
2020/12/03 20:54:41;;;;;;;11.80;10.32;;;;;;;3.65;64.94;98054.78;9879750;28;20430;-61
2020/12/03 20:59:43;;;;;;;12.05;9.98;;;;;;;3.68;64.73;98059.78;9867453;28;20053;-61
2020/12/03 21:04:44;;;;;;;13.00;10.93;;;;;;;3.66;64.84;98056.41;9846349;28;20053;-61
2020/12/03 21:09:46;;;;;;;13.07;10.80;;;;;;;3.68;64.88;98055.34;9846044;28;20065;-61
2020/12/03 21:14:47;;;;;;;12.50;10.88;;;;;;;3.66;64.63;98048.53;9862379;28;20097;-61
2020/12/03 21:19:49;;;;;;;12.68;10.80;;;;;;;3.59;64.70;98035.09;9857095;28;20053;-61
2020/12/03 21:24:51;;;;;;;11.75;10.48;;;;;;;3.61;64.64;98027.06;9852069;28;21962;-62
2020/12/03 21:29:52;;;;;;;13.13;10.95;;;;;;;3.61;64.54;98008.66;9854961;28;20064;-63
2020/12/03 21:34:54;;;;;;;12.13;9.73;;;;;;;3.60;65.06;98005.16;9854296;28;21716;-61
2020/12/03 21:39:56;;;;;;;13.30;10.63;;;;;;;3.51;64.93;97993.66;9859381;28;20048;-62
2020/12/03 21:44:57;;;;;;;13.70;11.23;;;;;;;3.53;64.93;97983.00;9845582;28;22951;-61
2020/12/03 21:49:59;;;;;;;12.25;10.45;;;;;;;3.51;64.66;97959.47;9848004;28;20049;-60
2020/12/03 21:55:01;;;;;;;12.40;11.13;;;;;;;3.51;65.31;97962.09;9854656;28;20209;-63
2020/12/03 22:00:05;;;;;;;10.85;9.45;;;;;;;3.53;65.39;97961.97;9850710;28;20506;-62
2020/12/03 22:05:07;;;;;;;14.48;11.25;;;;;;;3.41;64.92;97952.50;9882643;28;21404;-63
2020/12/03 22:10:08;;;;;;;13.68;11.05;;;;;;;3.53;65.30;97946.19;9873496;28;21633;-61
2020/12/03 22:15:09;;;;;;;12.70;10.95;;;;;;;3.48;65.38;97943.97;9900060;28;20099;-61
2020/12/03 22:20:11;;;;;;;12.05;10.73;;;;;;;3.51;65.43;97932.31;9893093;28;20058;-61
2020/12/03 22:25:12;;;;;;;12.80;10.75;;;;;;;3.61;65.29;97927.09;9884232;28;20119;-65
2020/12/03 22:30:13;;;;;;;11.20;10.00;;;;;;;3.65;64.84;97915.34;9885148;28;20068;-61
2020/12/03 22:35:15;;;;;;;11.80;10.38;;;;;;;3.68;64.65;97917.69;9881931;28;20046;-67
2020/12/03 22:40:16;;;;;;;11.90;10.02;;;;;;;3.69;64.75;97909.66;9885267;28;20817;-61
2020/12/03 22:45:20;;;;;;;11.63;10.02;;;;;;;3.71;64.68;97901.63;9897309;28;20053;-61
2020/12/03 22:50:21;;;;;;;11.43;10.23;;;;;;;3.79;64.59;97893.84;9899343;28;20056;-60
2020/12/03 22:55:23;;;;;;;10.75;9.65;;;;;;;3.87;63.93;97880.84;9906163;28;20060;-61
2020/12/03 23:00:24;;;;;;;13.20;10.55;;;;;;;3.76;64.26;97873.09;9886234;28;20052;-60
2020/12/03 23:05:25;;;;;;;13.90;11.45;;;;;;;3.83;64.22;97868.13;9883542;28;20072;-62
2020/12/03 23:10:27;;;;;;;12.82;10.48;;;;;;;3.86;64.28;97854.66;9884399;28;22210;-60
2020/12/03 23:15:28;;;;;;;13.85;11.32;;;;;;;3.87;63.83;97846.63;9890219;28;20059;-65
2020/12/03 23:20:30;;;;;;;12.52;11.23;;;;;;;3.84;64.03;97836.38;9893461;28;20187;-60
2020/12/03 23:25:31;;;;;;;13.63;11.75;;;;;;;3.85;64.30;97824.06;9891407;28;20049;-62
2020/12/03 23:30:33;;;;;;;14.40;12.30;;;;;;;3.83;63.99;97810.22;9892087;28;20056;-61
2020/12/03 23:35:34;;;;;;;15.77;12.63;;;;;;;3.81;64.36;97802.44;9900465;28;20056;-61
2020/12/03 23:40:36;;;;;;;14.07;11.95;;;;;;;3.80;64.80;97779.75;9894115;28;24031;-61
2020/12/03 23:45:37;;;;;;;17.40;13.70;;;;;;;3.73;64.55;97768.09;9903569;28;20469;-61
2020/12/03 23:50:39;;;;;;;15.88;12.15;;;;;;;3.83;65.40;97749.69;9898128;28;20057;-63